METAR AND TAF INFORMATION

METAR FOR LIMW
ADDS - METARS form results

(2355 UTC 26 November 2022)
Data provider http://aviationweather.gov/metar/data/
 
Forecast for: LIMW (AOSTA ARPT , IT)
Text: TAF LIMW 261400Z 2615/2624 VRB05KT CAVOK
Forecast period: 1500 UTC 26 November 2022 to 0000 UTC 27 November 2022
Forecast type: FROM: standard forecast or significant change
Winds: variable direction winds at 6 MPH (5 knots; 2.6 m/s)
Visibility: 6 or more miles (10+ km)
Ceiling: unknown
Clouds: missing
Weather: NSW  (no significant weather)

 

AIRPORT MAP

 

RUNWAY INFORMATION

Runway 09 Runway length 4088 ft Runway width 98 ft
Runway elevation 1790 ft Runway displaced threshold 213 ft Runway heading 85
Runway 27 Runway length 4088 ft Runway width 98 ft
Runway elevation 1773 ft Runway displaced threshold 115 ft Runway heading 265

 

AIRPORT FREQUENCIES

Type AFIS Name INFO Frequency 119.95 MHZ

 

AIRPORT NEAR NAVIGATION AIDS